Flight Track Log - Related Links

Times and Time Zones

All times are in EDT time to prevent confusion due to time zone crossing. See the SWA722 flight status page for this flight to view local times or setup timezone preferences in your user account.

Time Position Orientation Groundspeed Altitude Reporting Facility
EDT Latitude Longitude Course Direction KTS MPH feet Rate Location/Type
Sun 07:29:54 AM 28.4167 -81.3000 210° Southwest 157 181 700  Level Orlando TRACON
Sun 07:31:00 AM 28.3667 -81.3333 210° Southwest 194 223 3,000 2,591 Climbing Orlando TRACON
Sun 07:32:06 AM 28.3500 -81.3833 249° West 221 254 6,400 2,796 Climbing Orlando TRACON
Sun 07:34:11 AM 28.3433 -81.5600 268° West 274 315 11,900 2,772 Climbing Jacksonville Center
Sun 07:35:10 AM 28.3672 -81.6658 284° West 312 359 14,900 3,126 Climbing Jacksonville Center
Sun 07:36:10 AM 28.3997 -81.7742 289° West 344 396 18,100 3,050 Climbing Jacksonville Center
Sun 07:37:10 AM 28.4361 -81.8844 291° West 364 419 21,000 2,700 Climbing Jacksonville Center
Sun 07:38:10 AM 28.4744 -82.0000 291° West 383 441 23,500 2,450 Climbing Jacksonville Center
Sun 07:39:10 AM 28.5147 -82.1131 292° West 388 447 25,900 2,050 Climbing Jacksonville Center
Sun 07:40:10 AM 28.5594 -82.2356 293° West 400 460 27,600 1,750 Climbing Jacksonville Center
Sun 07:41:10 AM 28.6017 -82.3653 290° West 415 478 29,400 1,900 Climbing Jacksonville Center
Sun 07:42:10 AM 28.6458 -82.4928 292° West 427 491 31,400 1,900 Climbing Jacksonville Center
Sun 07:43:10 AM 28.6944 -82.6322 292° West 427 491 33,200 1,950 Climbing Jacksonville Center
Sun 07:44:10 AM 28.7342 -82.7339 294° West 421 484 35,300 1,850 Climbing Jacksonville Center
Sun 07:45:10 AM 28.8261 -82.8167 322° Northwest 405 466 36,900 1,550 Climbing Jacksonville Center
Sun 07:46:10 AM 28.9222 -82.8950 325° Northwest 405 466 38,400 1,350 Climbing Jacksonville Center
Sun 07:47:10 AM 29.0161 -82.9686 326° Northwest 410 472 39,600 800 Climbing Jacksonville Center
Sun 07:48:10 AM 29.1100 -83.0400 326° Northwest 410 472 40,000 200 Climbing Jacksonville Center
Sun 07:49:10 AM 29.2036 -83.1161 325° Northwest 410 472 40,000  Level Jacksonville Center
Sun 07:50:10 AM 29.2994 -83.1903 326° Northwest 410 472 40,000  Level Jacksonville Center
Sun 07:51:10 AM 29.3953 -83.2667 325° Northwest 410 472 40,000  Level Jacksonville Center
Sun 07:52:10 AM 29.4911 -83.3436 325° Northwest 410 472 40,000  Level Jacksonville Center
Sun 07:53:10 AM 29.5931 -83.4253 325° Northwest 415 478 40,000  Level Jacksonville Center
Sun 07:54:10 AM 29.6889 -83.5022 325° Northwest 415 478 40,000  Level Jacksonville Center
Sun 07:55:10 AM 29.7825 -83.5744 326° Northwest 415 478 40,000  Level Jacksonville Center
Sun 07:56:10 AM 29.8781 -83.6494 326° Northwest 410 472 40,000  Level Jacksonville Center
Sun 07:57:10 AM 29.9714 -83.7244 325° Northwest 410 472 40,000  Level Jacksonville Center
Sun 07:58:10 AM 30.0628 -83.7997 325° Northwest 410 472 40,000  Level Jacksonville Center
Sun 07:59:10 AM 30.1542 -83.8728 325° Northwest 405 466 40,000  Level Jacksonville Center
Sun 08:00:10 AM 30.2456 -83.9481 325° Northwest 405 466 40,000  Level Jacksonville Center
Sun 08:01:10 AM 30.3408 -84.0214 326° Northwest 405 466 40,000  Level Jacksonville Center
Sun 08:02:10 AM 30.4300 -84.0994 323° Northwest 405 466 40,000  Level Jacksonville Center
Sun 08:03:10 AM 30.5253 -84.1756 325° Northwest 410 472 40,000  Level Jacksonville Center
Sun 08:04:10 AM 30.6081 -84.2442 325° Northwest 410 472 40,000  Level Jacksonville Center
Sun 08:05:10 AM 30.7011 -84.3206 325° Northwest 410 472 40,000  Level Jacksonville Center
Sun 08:06:10 AM 30.7964 -84.3969 325° Northwest 405 466 40,000  Level Jacksonville Center
Sun 08:07:10 AM 30.8914 -84.4758 325° Northwest 405 466 40,000  Level Jacksonville Center
Sun 08:08:10 AM 30.9844 -84.5525 325° Northwest 405 466 40,000 -250 Level Jacksonville Center
Sun 08:09:10 AM 31.0814 -84.6319 325° Northwest 410 472 39,500 -834 Descending Jacksonville Center
Sun 08:11:17 AM 31.2892 -84.8019 325° Northwest 412 474 37,400 -995 Descending Atlanta Center
Sun 08:12:17 AM 31.3847 -84.8828 324° Northwest 412 474 36,400 -1,000 Descending Atlanta Center
Sun 08:13:17 AM 31.4822 -84.9642 325° Northwest 417 480 35,400 -950 Descending Atlanta Center
Sun 08:14:17 AM 31.5778 -85.0456 324° Northwest 427 491 34,500 -700 Descending Atlanta Center
Sun 08:15:17 AM 31.6625 -85.1197 323° Northwest 427 491 34,000 -600 Descending Atlanta Center
Sun 08:16:17 AM 31.7744 -85.2067 327° Northwest 434 499 33,300 -800 Descending Atlanta Center
Sun 08:17:17 AM 31.8697 -85.2886 324° Northwest 439 505 32,400 -950 Descending Atlanta Center
Sun 08:18:17 AM 31.9689 -85.3731 324° Northwest 434 499 31,400 -1,000 Descending Atlanta Center
Sun 08:19:17 AM 32.0642 -85.4506 325° Northwest 429 494 30,400 -1,250 Descending Atlanta Center
Sun 08:20:17 AM 32.1592 -85.5331 324° Northwest 429 494 28,900 -1,500 Descending Atlanta Center
Sun 08:21:17 AM 32.2542 -85.6131 325° Northwest 429 494 27,400 -1,500 Descending Atlanta Center
Sun 08:22:17 AM 32.3450 -85.6886 325° Northwest 424 488 25,900 -1,450 Descending Atlanta Center
Sun 08:23:17 AM 32.4378 -85.7689 324° Northwest 418 481 24,500 -1,200 Descending Atlanta Center
Sun 08:24:17 AM 32.5267 -85.8472 323° Northwest 403 464 23,500 -1,000 Descending Atlanta Center
Sun 08:25:17 AM 32.6153 -85.9203 325° Northwest 397 457 22,500 -1,250 Descending Atlanta Center
Sun 08:26:17 AM 32.7017 -85.9964 323° Northwest 397 457 21,000 -1,789 Descending Atlanta Center
Sun 08:27:11 AM 32.7675 -86.0619 320° Northwest 371 427 19,100 -2,000 Descending Atlanta Center
Sun 08:27:47 AM 32.8189 -86.1028 326° Northwest 360 414 18,000 -1,818 Descending Atlanta Center
Sun 08:28:17 AM 32.8622 -86.1383 325° Northwest 366 421 17,100 -1,967 Descending Atlanta Center
Sun 08:28:48 AM 32.8969 -86.1739 319° Northwest 349 402 16,000 -2,100 Descending Atlanta Center
Sun 08:29:17 AM 32.9425 -86.2047 330° Northwest 361 415 15,000 -2,262 Descending Atlanta Center
Sun 08:29:49 AM 32.9814 -86.2478 317° Northwest 351 404 13,700 -2,100 Descending Atlanta Center
Sun 08:30:17 AM 33.0206 -86.2736 331° Northwest 361 415 12,900 -2,000 Descending Atlanta Center
Sun 08:30:49 AM 33.0614 -86.3142 320° Northwest 351 404 11,700 -1,800 Descending Atlanta Center
Sun 08:31:17 AM 33.0964 -86.3400 328° Northwest 361 415 11,100 -689 Descending Atlanta Center
Sun 08:31:50 AM 33.1353 -86.3806 319° Northwest 334 384 11,000 -300 Descending Atlanta Center
Sun 08:32:17 AM 33.1619 -86.4061 321° Northwest 343 395 10,800 -984 Descending Atlanta Center
Sun 08:32:51 AM 33.1883 -86.4514 305° West 280 322 10,000 -1,300 Descending Atlanta Center
Sun 08:33:17 AM 33.2128 -86.4819 314° West 309 356 9,500 -1,200 Descending Atlanta Center
Sun 08:33:51 AM 33.2389 -86.5250 306° West 277 319 8,800 -1,200 Descending Atlanta Center
Sun 08:34:17 AM 33.2614 -86.5481 319° Northwest 286 329 8,300 -1,377 Descending Atlanta Center
Sun 08:34:52 AM 33.2878 -86.5908 306° West 267 307 7,400 -1,400 Descending Atlanta Center
Sun 08:35:17 AM 33.3042 -86.6114 314° West 280 322 6,900 -1,500 Descending Atlanta Center
Sun 08:35:52 AM 33.3300 -86.6642 300° West 274 315 5,900 -1,100 Descending Atlanta Center
Sun 08:36:17 AM 33.3544 -86.6900 319° Northwest 280 322 5,800 -1,343 Descending Atlanta Center
Sun 08:36:59 AM 33.3719 -86.7550 288° West 265 305 4,400 -1,515 Descending Atlanta Center
Sun 08:38:00 AM 33.4056 -86.8333 297° West 259 298 3,200 -645 Descending Atlanta Center
Sun 08:39:00 AM 33.4356 -86.8989 299° West 227 261 3,100 -198 Descending Atlanta Center
Sun 08:40:01 AM 33.4900 -86.8883 North 227 261 2,800 -645 Descending Atlanta Center
Sun 08:41:01 AM 33.5206 -86.8294 58° Northeast 194 223 1,800 -945 Descending Atlanta Center
Sun 08:42:08 AM 33.5489 -86.7806 55° Northeast 142 163 800 -896 Descending Atlanta Center
Sun 08:44:00 AM 33.5500 -86.7500 44° Northeast  Level FlightAware Approximate

Login

Don't have an account? Register now (free) for customized features, flight alerts, and more!